createdAt,value
2023-06-27T00:00:02.178Z,12.88
2023-06-27T00:02:32.392Z,12.85
2023-06-27T00:05:02.247Z,13.70
2023-06-27T00:07:30.511Z,13.48
2023-06-27T00:09:58.672Z,11.48
2023-06-27T00:12:27.184Z,12.00
2023-06-27T00:14:56.297Z,11.63
2023-06-27T00:17:25.985Z,12.95
2023-06-27T00:19:59.372Z,16.80
2023-06-27T00:22:30.335Z,26.23
2023-06-27T00:24:58.494Z,34.95
2023-06-27T00:27:26.625Z,41.67
2023-06-27T00:29:54.932Z,48.92
2023-06-27T00:32:23.030Z,53.70
2023-06-27T00:34:51.248Z,63.28
2023-06-27T00:37:19.421Z,66.55
2023-06-27T00:39:49.009Z,68.68
2023-06-27T00:42:17.136Z,71.32
2023-06-27T00:44:45.175Z,74.40
2023-06-27T00:47:13.244Z,77.22
2023-06-27T00:49:41.370Z,79.20
2023-06-27T00:52:10.132Z,86.35
2023-06-27T00:54:38.661Z,88.22
2023-06-27T00:57:08.718Z,93.28
2023-06-27T00:59:39.713Z,93.85
2023-06-27T01:02:08.011Z,95.47
2023-06-27T01:04:37.634Z,96.93
2023-06-27T01:07:12.858Z,96.18
2023-06-27T01:09:47.408Z,98.75
2023-06-27T01:12:22.408Z,100.13
2023-06-27T01:14:52.566Z,101.93
2023-06-27T01:17:22.639Z,102.50
2023-06-27T01:19:54.058Z,104.13
2023-06-27T01:22:32.758Z,104.63
2023-06-27T01:25:04.015Z,105.32
2023-06-27T01:27:32.412Z,106.93
2023-06-27T01:30:00.477Z,106.38
2023-06-27T01:32:34.575Z,107.53
2023-06-27T01:35:09.446Z,109.03
2023-06-27T01:37:41.611Z,108.35
2023-06-27T01:40:15.541Z,110.05
2023-06-27T01:42:45.507Z,112.20
2023-06-27T01:45:15.458Z,111.50
2023-06-27T01:47:45.577Z,112.65
2023-06-27T01:50:15.206Z,111.80
2023-06-27T01:52:44.264Z,112.38
2023-06-27T01:55:13.940Z,112.30
2023-06-27T01:57:42.324Z,112.13
2023-06-27T02:00:12.489Z,113.22
2023-06-27T02:02:48.844Z,112.20
2023-06-27T02:05:17.197Z,112.20
2023-06-27T02:07:45.310Z,108.60
2023-06-27T02:10:14.767Z,110.35
2023-06-27T02:12:42.989Z,112.38
2023-06-27T02:15:11.685Z,113.45
2023-06-27T02:17:39.855Z,113.22
2023-06-27T02:20:09.271Z,113.20
2023-06-27T02:22:37.568Z,115.35
2023-06-27T02:25:08.524Z,115.03
2023-06-27T02:27:38.048Z,113.63
2023-06-27T02:30:07.283Z,114.45
2023-06-27T02:32:35.477Z,114.50
2023-06-27T02:35:06.830Z,114.25
2023-06-27T02:37:35.110Z,115.78
2023-06-27T02:40:05.991Z,116.60
2023-06-27T02:42:34.174Z,116.63
2023-06-27T02:45:03.639Z,115.30
2023-06-27T02:47:31.747Z,117.38
2023-06-27T02:50:00.322Z,117.30
2023-06-27T02:52:28.689Z,117.55
2023-06-27T02:54:56.841Z,117.50
2023-06-27T02:57:25.176Z,117.75
2023-06-27T02:59:53.345Z,118.45
2023-06-27T03:02:23.602Z,119.63
2023-06-27T03:04:52.545Z,119.35
2023-06-27T03:07:20.782Z,120.25
2023-06-27T03:09:48.960Z,118.22
2023-06-27T03:12:18.985Z,117.97
2023-06-27T03:14:47.242Z,117.53
2023-06-27T03:17:15.384Z,118.03
2023-06-27T03:19:45.705Z,117.53
2023-06-27T03:22:16.605Z,118.10
2023-06-27T03:24:44.848Z,117.70
2023-06-27T03:27:14.808Z,118.05
2023-06-27T03:29:43.932Z,117.03
2023-06-27T03:32:13.936Z,117.22
2023-06-27T03:34:43.215Z,116.10
2023-06-27T03:37:13.277Z,116.60
2023-06-27T03:39:42.221Z,115.50
2023-06-27T03:42:10.340Z,114.22
2023-06-27T03:44:38.528Z,112.32
2023-06-27T03:47:07.781Z,114.45
2023-06-27T03:49:36.333Z,114.65
2023-06-27T03:52:04.767Z,115.35
2023-06-27T03:54:34.256Z,114.90
2023-06-27T03:57:02.337Z,114.50
2023-06-27T03:59:30.470Z,115.25
2023-06-27T04:01:58.855Z,115.25
2023-06-27T04:04:27.434Z,115.03
2023-06-27T04:06:55.753Z,115.47
2023-06-27T04:09:23.856Z,113.15
2023-06-27T04:12:04.079Z,113.65
2023-06-27T04:14:36.651Z,113.55
2023-06-27T04:17:11.242Z,112.88
2023-06-27T04:19:46.761Z,111.70
2023-06-27T04:22:18.084Z,111.60
2023-06-27T04:24:52.526Z,111.05
2023-06-27T04:27:24.234Z,110.68
2023-06-27T04:30:01.724Z,110.90
2023-06-27T04:32:40.962Z,111.18
2023-06-27T04:35:20.170Z,110.85
2023-06-27T04:37:59.210Z,111.28
2023-06-27T04:40:28.920Z,109.53
2023-06-27T04:44:30.070Z,110.15
2023-06-27T04:47:01.265Z,109.57
2023-06-27T04:49:30.326Z,108.13
2023-06-27T04:51:58.859Z,106.45
2023-06-27T04:54:27.004Z,105.88
2023-06-27T04:57:04.260Z,106.07
2023-06-27T04:59:42.079Z,107.68
2023-06-27T05:02:14.179Z,108.20
2023-06-27T05:04:47.657Z,108.65
2023-06-27T05:07:17.001Z,107.95
2023-06-27T05:09:53.611Z,108.53
2023-06-27T05:12:23.145Z,108.10
2023-06-27T05:14:52.816Z,108.07
2023-06-27T05:17:23.585Z,107.80
2023-06-27T05:19:52.817Z,107.57
2023-06-27T05:22:20.950Z,107.07
2023-06-27T05:24:53.516Z,108.63
2023-06-27T05:27:22.720Z,110.85
2023-06-27T05:29:52.283Z,109.75
2023-06-27T05:32:20.454Z,110.05
2023-06-27T05:34:49.945Z,109.65
2023-06-27T05:37:18.353Z,107.90
2023-06-27T05:39:50.933Z,107.28
2023-06-27T05:42:20.221Z,109.65
2023-06-27T05:44:48.291Z,108.88
2023-06-27T05:47:17.886Z,111.22
2023-06-27T05:49:46.034Z,112.13
2023-06-27T05:52:14.175Z,109.43
2023-06-27T05:54:43.147Z,110.00
2023-06-27T05:57:11.489Z,111.28
2023-06-27T05:59:42.585Z,112.80
2023-06-27T06:02:12.010Z,113.05
2023-06-27T06:04:41.617Z,113.45
2023-06-27T06:07:09.895Z,114.60
2023-06-27T06:09:38.129Z,116.28
2023-06-27T06:12:15.870Z,117.72
2023-06-27T06:14:45.240Z,117.38
2023-06-27T06:17:13.348Z,119.03
2023-06-27T06:19:43.166Z,117.95
2023-06-27T06:22:11.483Z,118.18
2023-06-27T06:24:41.208Z,118.40
2023-06-27T06:27:09.757Z,114.93
2023-06-27T06:29:37.958Z,116.10
2023-06-27T06:32:09.163Z,112.22
2023-06-27T06:34:37.373Z,108.78
2023-06-27T06:37:07.195Z,105.57
2023-06-27T06:39:35.362Z,103.03
2023-06-27T06:42:04.344Z,99.03
2023-06-27T06:44:32.890Z,94.03
2023-06-27T06:47:06.412Z,92.22
2023-06-27T06:49:35.616Z,88.07
2023-06-27T06:52:03.835Z,86.50
2023-06-27T06:54:45.170Z,84.43
2023-06-27T06:57:14.941Z,82.35
2023-06-27T06:59:44.329Z,80.70
2023-06-27T07:02:14.566Z,80.63
2023-06-27T07:04:43.080Z,78.60
2023-06-27T07:07:11.339Z,73.63
2023-06-27T07:09:40.803Z,68.18
2023-06-27T07:12:09.491Z,66.93
2023-06-27T07:14:37.801Z,62.88
2023-06-27T07:17:06.385Z,57.35
2023-06-27T07:19:34.529Z,55.25
2023-06-27T07:22:02.727Z,53.78
2023-06-27T07:24:30.819Z,45.00
2023-06-27T07:27:00.319Z,43.47
2023-06-27T07:29:28.468Z,43.95
2023-06-27T07:31:57.213Z,42.47
2023-06-27T07:34:25.461Z,41.17
2023-06-27T07:36:53.558Z,39.75
2023-06-27T07:41:54.677Z,37.22
2023-06-27T07:44:24.298Z,38.70
2023-06-27T07:46:52.580Z,39.40
2023-06-27T07:49:20.728Z,38.30
2023-06-27T07:51:52.513Z,37.95
2023-06-27T07:54:22.472Z,37.13
2023-06-27T07:56:50.606Z,35.55
2023-06-27T07:59:18.742Z,36.00
2023-06-27T08:01:48.166Z,37.63
2023-06-27T08:04:17.204Z,35.20
2023-06-27T08:06:45.716Z,30.52
2023-06-27T08:09:13.916Z,27.90
2023-06-27T08:11:42.074Z,25.15
2023-06-27T08:14:10.946Z,23.77
2023-06-27T08:16:39.028Z,22.67
2023-06-27T08:19:08.550Z,21.27
2023-06-27T08:21:36.774Z,17.98
2023-06-27T08:24:05.387Z,16.88
2023-06-27T08:26:33.490Z,15.73
2023-06-27T08:29:01.702Z,14.82
2023-06-27T08:31:30.000Z,14.85
2023-06-27T08:33:58.134Z,15.65
2023-06-27T08:36:27.545Z,17.27
2023-06-27T08:38:55.733Z,18.55
2023-06-27T08:41:24.400Z,20.38
2023-06-27T08:43:53.876Z,23.38
2023-06-27T08:46:24.695Z,22.88
2023-06-27T08:48:56.378Z,22.60
2023-06-27T08:51:30.538Z,22.02
2023-06-27T08:54:07.742Z,21.17
2023-06-27T08:56:36.311Z,20.50
2023-06-27T08:59:09.111Z,19.50
2023-06-27T09:01:39.862Z,20.45
2023-06-27T09:04:08.550Z,21.65
2023-06-27T09:06:41.058Z,23.50
2023-06-27T09:09:09.414Z,25.00
2023-06-27T09:11:38.794Z,27.60
2023-06-27T09:14:08.126Z,28.67
2023-06-27T09:16:36.769Z,29.25
2023-06-27T09:19:05.014Z,31.02
2023-06-27T09:21:35.627Z,27.70
2023-06-27T09:24:09.469Z,28.90
2023-06-27T09:26:37.821Z,33.45
2023-06-27T09:29:05.918Z,37.20
2023-06-27T09:31:34.709Z,39.80
2023-06-27T09:34:09.664Z,42.67
2023-06-27T09:39:14.141Z,47.13
2023-06-27T09:41:46.092Z,47.28
2023-06-27T09:44:16.059Z,49.92
2023-06-27T09:46:45.786Z,49.05
2023-06-27T09:49:16.374Z,45.45
2023-06-27T09:51:47.852Z,43.15
2023-06-27T09:54:21.105Z,41.38
2023-06-27T09:56:51.723Z,39.28
2023-06-27T09:59:24.669Z,34.60
2023-06-27T10:01:55.298Z,30.85
2023-06-27T10:04:42.241Z,29.50
2023-06-27T10:07:12.660Z,27.13
2023-06-27T10:09:43.154Z,18.48
2023-06-27T10:12:13.918Z,17.77
2023-06-27T10:14:42.143Z,17.67
2023-06-27T10:17:11.461Z,15.50
2023-06-27T10:19:40.249Z,13.50
2023-06-27T10:22:13.255Z,12.60
2023-06-27T10:24:45.318Z,11.60
2023-06-27T10:27:14.768Z,12.13
2023-06-27T10:29:43.972Z,11.57
2023-06-27T10:32:12.409Z,12.38
2023-06-27T10:34:42.112Z,11.13
2023-06-27T10:37:13.300Z,10.40
2023-06-27T10:39:43.148Z,9.55
2023-06-27T10:42:29.086Z,9.52
2023-06-27T10:45:08.220Z,9.93
2023-06-27T10:47:39.968Z,10.60
2023-06-27T10:50:11.135Z,10.27
2023-06-27T10:52:40.645Z,10.27
2023-06-27T10:55:24.373Z,10.80
2023-06-27T10:58:04.239Z,10.88
2023-06-27T11:00:34.183Z,9.85
2023-06-27T11:03:05.666Z,9.43
2023-06-27T11:05:48.799Z,9.60
2023-06-27T11:08:18.873Z,9.13
2023-06-27T11:11:05.492Z,7.90
2023-06-27T11:13:36.706Z,7.05
2023-06-27T11:16:05.750Z,6.78
2023-06-27T11:18:35.637Z,6.63
2023-06-27T11:21:04.908Z,6.60
2023-06-27T11:23:33.422Z,7.22
2023-06-27T11:26:03.263Z,6.80
2023-06-27T11:28:31.437Z,6.68
2023-06-27T11:31:01.807Z,6.63
2023-06-27T11:33:30.281Z,5.80
2023-06-27T11:35:59.907Z,5.82
2023-06-27T11:38:29.072Z,5.80
2023-06-27T11:40:57.362Z,5.50
2023-06-27T11:43:28.807Z,5.75
2023-06-27T11:45:58.554Z,6.57
2023-06-27T11:48:26.752Z,6.10
2023-06-27T11:50:56.425Z,6.28
2023-06-27T11:53:26.308Z,6.50
2023-06-27T11:56:13.141Z,5.40
2023-06-27T11:58:47.175Z,5.80
2023-06-27T12:01:17.084Z,5.95
2023-06-27T12:03:50.437Z,5.43
2023-06-27T12:06:26.799Z,5.80
2023-06-27T12:08:55.297Z,4.40
2023-06-27T12:11:29.054Z,4.38
2023-06-27T12:13:58.612Z,3.80
2023-06-27T12:16:29.320Z,4.30
2023-06-27T12:19:05.250Z,4.00
2023-06-27T12:21:33.561Z,3.70
2023-06-27T12:24:01.811Z,3.95
2023-06-27T12:26:29.929Z,3.40
2023-06-27T12:29:00.658Z,3.70
2023-06-27T12:31:29.635Z,4.05
2023-06-27T12:34:00.264Z,3.90
2023-06-27T12:36:29.370Z,3.50
2023-06-27T12:38:57.493Z,4.18
2023-06-27T12:41:27.583Z,3.97
2023-06-27T12:43:55.929Z,3.58
2023-06-27T12:46:25.592Z,4.00
2023-06-27T12:48:53.761Z,5.03
2023-06-27T12:51:22.949Z,4.43
2023-06-27T12:53:51.058Z,3.72
2023-06-27T12:56:19.448Z,3.92
2023-06-27T12:58:49.055Z,4.40
2023-06-27T13:01:23.404Z,3.65
2023-06-27T13:03:53.748Z,4.18
2023-06-27T13:06:21.976Z,4.28
2023-06-27T13:08:50.106Z,4.65
2023-06-27T13:11:18.393Z,4.13
2023-06-27T13:13:46.705Z,4.28
2023-06-27T13:16:16.895Z,4.32
2023-06-27T13:18:47.018Z,4.60
2023-06-27T13:21:16.936Z,3.90
2023-06-27T13:23:45.655Z,3.80
2023-06-27T13:26:14.841Z,3.85
2023-06-27T13:28:42.955Z,3.85
2023-06-27T13:31:12.229Z,3.50
2023-06-27T13:33:40.437Z,3.67
2023-06-27T13:36:08.886Z,3.50
2023-06-27T13:38:38.502Z,4.03
2023-06-27T13:41:06.583Z,3.90
2023-06-27T13:43:36.024Z,4.32
2023-06-27T13:46:04.362Z,3.65
2023-06-27T13:48:33.084Z,3.60
2023-06-27T13:51:01.267Z,3.65
2023-06-27T13:53:29.416Z,4.00
2023-06-27T13:55:59.022Z,3.50
2023-06-27T13:58:27.193Z,4.35
2023-06-27T14:00:57.320Z,4.90
2023-06-27T14:03:26.058Z,3.92
2023-06-27T14:05:55.268Z,3.13
2023-06-27T14:08:23.663Z,3.58
2023-06-27T14:10:52.702Z,3.42
2023-06-27T14:13:22.305Z,4.13
2023-06-27T14:15:50.496Z,3.65
2023-06-27T14:18:18.701Z,3.50
2023-06-27T14:20:46.921Z,3.80
2023-06-27T14:23:15.155Z,3.65
2023-06-27T14:25:43.347Z,3.08
2023-06-27T14:28:11.445Z,3.50
2023-06-27T14:30:41.402Z,4.30
2023-06-27T14:33:10.351Z,3.25
2023-06-27T14:35:38.571Z,3.50
2023-06-27T14:38:06.706Z,3.47
2023-06-27T14:40:34.950Z,3.60
2023-06-27T14:43:03.081Z,3.80
2023-06-27T14:45:31.180Z,3.75
2023-06-27T14:48:00.744Z,3.38
2023-06-27T14:50:29.510Z,3.30
2023-06-27T14:52:57.730Z,3.65
2023-06-27T14:55:25.923Z,3.60
2023-06-27T14:57:54.366Z,3.97
2023-06-27T15:00:22.745Z,3.40
2023-06-27T15:02:51.070Z,3.30
2023-06-27T15:05:21.085Z,3.20
2023-06-27T15:07:50.765Z,3.60
2023-06-27T15:10:20.777Z,3.50
2023-06-27T15:12:49.011Z,3.38
2023-06-27T15:15:17.635Z,3.53
2023-06-27T15:17:45.819Z,3.30
2023-06-27T15:20:14.541Z,3.13
2023-06-27T15:22:44.171Z,3.08
2023-06-27T15:25:12.362Z,3.35
2023-06-27T15:27:41.265Z,2.83
2023-06-27T15:30:10.564Z,3.20
2023-06-27T15:32:44.763Z,3.08
2023-06-27T15:35:20.514Z,2.78
2023-06-27T15:38:00.080Z,3.03
2023-06-27T15:40:30.460Z,2.88
2023-06-27T15:43:05.897Z,3.47
2023-06-27T15:45:52.212Z,3.30
2023-06-27T15:48:40.269Z,3.40
2023-06-27T15:51:10.905Z,3.78
2023-06-27T15:53:50.054Z,3.08
2023-06-27T15:56:19.842Z,3.22
2023-06-27T15:58:57.404Z,3.67
2023-06-27T16:01:31.656Z,3.28
2023-06-27T16:04:00.902Z,3.50
2023-06-27T16:06:32.002Z,3.42
2023-06-27T16:09:01.538Z,3.08
2023-06-27T16:11:34.988Z,3.33
2023-06-27T16:14:04.267Z,2.95
2023-06-27T16:16:32.409Z,3.80
2023-06-27T16:19:07.294Z,3.38
2023-06-27T16:21:42.570Z,3.40
2023-06-27T16:24:13.167Z,4.13
2023-06-27T16:26:41.281Z,3.35
2023-06-27T16:29:14.231Z,3.45
2023-06-27T16:31:43.617Z,3.40
2023-06-27T16:34:12.342Z,3.40
2023-06-27T16:36:40.423Z,3.30
2023-06-27T16:39:08.686Z,2.75
2023-06-27T16:41:40.186Z,3.70
2023-06-27T16:44:13.148Z,3.70
2023-06-27T16:46:46.311Z,3.35
2023-06-27T16:49:23.864Z,3.95
2023-06-27T16:51:58.448Z,3.25
2023-06-27T16:54:28.446Z,3.63
2023-06-27T16:57:14.954Z,3.75
2023-06-27T16:59:51.961Z,3.60
2023-06-27T17:02:29.479Z,3.55
2023-06-27T17:05:11.049Z,3.50
2023-06-27T17:07:40.948Z,4.10
2023-06-27T17:10:10.855Z,3.80
2023-06-27T17:12:40.466Z,3.65
2023-06-27T17:15:09.681Z,2.40
2023-06-27T17:17:37.939Z,3.42
2023-06-27T17:20:07.088Z,3.70
2023-06-27T17:22:35.265Z,3.25
2023-06-27T17:25:03.461Z,3.20
2023-06-27T17:27:31.542Z,3.75
2023-06-27T17:30:01.245Z,3.53
2023-06-27T17:32:29.847Z,3.15
2023-06-27T17:34:58.173Z,3.42
2023-06-27T17:37:26.341Z,3.53
2023-06-27T17:39:54.597Z,3.85
2023-06-27T17:42:22.734Z,3.75
2023-06-27T17:44:52.487Z,3.28
2023-06-27T17:47:22.046Z,3.00
2023-06-27T17:49:57.936Z,3.80
2023-06-27T17:52:27.132Z,4.07
2023-06-27T17:54:55.274Z,3.60
2023-06-27T17:57:23.465Z,3.70
2023-06-27T17:59:51.684Z,3.78
2023-06-27T18:02:21.206Z,3.35
2023-06-27T18:04:49.293Z,3.75
2023-06-27T18:07:32.606Z,3.47
2023-06-27T18:10:06.038Z,4.22
2023-06-27T18:12:34.188Z,3.88
2023-06-27T18:15:02.672Z,3.42
2023-06-27T18:17:32.330Z,4.05
2023-06-27T18:20:00.717Z,3.70
2023-06-27T18:22:28.840Z,4.03
2023-06-27T18:24:57.277Z,4.38
2023-06-27T18:27:25.540Z,4.22
2023-06-27T18:29:54.484Z,3.90
2023-06-27T18:32:22.594Z,4.32
2023-06-27T18:34:52.089Z,4.43
2023-06-27T18:37:20.204Z,3.95
2023-06-27T18:39:48.480Z,3.60
2023-06-27T18:42:16.636Z,4.38
2023-06-27T18:44:46.910Z,3.45
2023-06-27T18:47:15.113Z,4.00
2023-06-27T18:49:43.749Z,3.67
2023-06-27T18:52:13.683Z,3.88
2023-06-27T18:54:42.039Z,3.90
2023-06-27T18:57:10.106Z,3.75
2023-06-27T18:59:38.223Z,3.90
2023-06-27T19:02:07.587Z,3.83
2023-06-27T19:04:36.144Z,4.18
2023-06-27T19:07:04.520Z,3.60
2023-06-27T19:09:41.192Z,4.10
2023-06-27T19:12:15.141Z,3.70
2023-06-27T19:14:50.455Z,3.72
2023-06-27T19:17:23.255Z,4.47
2023-06-27T19:19:54.258Z,4.13
2023-06-27T19:22:31.270Z,4.20
2023-06-27T19:25:07.803Z,3.70
2023-06-27T19:27:48.577Z,3.88
2023-06-27T19:30:26.252Z,3.70
2023-06-27T19:33:00.913Z,3.83
2023-06-27T19:35:33.682Z,4.22
2023-06-27T19:38:02.906Z,3.90
2023-06-27T19:40:32.356Z,3.78
2023-06-27T19:43:06.345Z,4.10
2023-06-27T19:45:45.361Z,4.60
2023-06-27T19:48:15.230Z,4.40
2023-06-27T19:50:47.275Z,3.60
2023-06-27T19:53:18.751Z,4.03
2023-06-27T19:55:48.142Z,3.78
2023-06-27T19:58:21.403Z,3.85
2023-06-27T20:00:50.911Z,4.10
2023-06-27T20:03:19.342Z,4.25
2023-06-27T20:05:50.766Z,3.75
2023-06-27T20:08:28.189Z,4.25
2023-06-27T20:10:59.018Z,4.75
2023-06-27T20:13:32.999Z,4.35
2023-06-27T20:16:06.482Z,4.80
2023-06-27T20:18:37.363Z,4.45
2023-06-27T20:21:06.261Z,4.50
2023-06-27T20:23:34.477Z,5.07
2023-06-27T20:26:05.947Z,5.20
2023-06-27T20:28:34.173Z,4.80
2023-06-27T20:31:03.607Z,5.22
2023-06-27T20:33:39.369Z,5.68
2023-06-27T20:36:08.582Z,5.68
2023-06-27T20:38:37.216Z,5.95
2023-06-27T20:41:06.726Z,5.30
2023-06-27T20:43:34.936Z,5.20
2023-06-27T20:46:03.885Z,5.78
2023-06-27T20:48:32.004Z,5.60
2023-06-27T20:51:00.143Z,5.63
2023-06-27T20:53:28.302Z,6.38
2023-06-27T20:55:56.553Z,5.72
2023-06-27T20:58:26.174Z,6.20
2023-06-27T21:01:00.109Z,6.70
2023-06-27T21:03:29.672Z,6.13
2023-06-27T21:05:57.894Z,6.47
2023-06-27T21:08:30.913Z,6.68
2023-06-27T21:10:58.928Z,6.88
2023-06-27T21:13:29.898Z,6.50
2023-06-27T21:15:58.453Z,6.10
2023-06-27T21:18:26.729Z,6.00
2023-06-27T21:20:54.959Z,7.13
2023-06-27T21:23:23.335Z,6.75
2023-06-27T21:25:52.628Z,6.18
2023-06-27T21:28:20.896Z,6.87
2023-06-27T21:30:50.350Z,6.38
2023-06-27T21:33:18.487Z,5.90
2023-06-27T21:35:46.652Z,6.32
2023-06-27T21:38:22.859Z,6.50
2023-06-27T21:40:52.022Z,6.53
2023-06-27T21:43:20.186Z,6.13
2023-06-27T21:45:53.028Z,6.53
2023-06-27T21:48:22.339Z,6.55
2023-06-27T21:50:50.715Z,5.82
2023-06-27T21:53:21.269Z,5.95
2023-06-27T21:55:50.170Z,6.10
2023-06-27T21:58:24.329Z,5.85
2023-06-27T22:01:03.031Z,6.63
2023-06-27T22:03:39.979Z,6.27
2023-06-27T22:06:10.435Z,6.22
2023-06-27T22:08:39.695Z,6.77
2023-06-27T22:11:14.854Z,7.63
2023-06-27T22:13:44.407Z,7.07
2023-06-27T22:16:13.914Z,7.73
2023-06-27T22:18:42.031Z,7.70
2023-06-27T22:21:10.212Z,7.17
2023-06-27T22:23:38.379Z,7.70
2023-06-27T22:26:14.418Z,7.90
2023-06-27T22:28:45.249Z,8.50
2023-06-27T22:31:14.948Z,8.80
2023-06-27T22:33:43.068Z,8.77
2023-06-27T22:36:11.154Z,9.63
2023-06-27T22:38:44.155Z,9.37
2023-06-27T22:41:13.423Z,11.30
2023-06-27T22:43:41.537Z,9.90
2023-06-27T22:46:13.283Z,10.60
2023-06-27T22:48:45.088Z,11.90
2023-06-27T22:51:13.234Z,11.43
2023-06-27T22:53:47.755Z,11.80
2023-06-27T22:56:16.987Z,12.20
2023-06-27T22:58:45.417Z,12.50
2023-06-27T23:01:18.654Z,12.87
2023-06-27T23:03:49.257Z,13.63
2023-06-27T23:06:24.143Z,14.00
2023-06-27T23:08:53.237Z,14.40
2023-06-27T23:11:21.301Z,14.73
2023-06-27T23:13:56.421Z,15.20
2023-06-27T23:16:27.155Z,16.53
2023-06-27T23:18:59.681Z,16.33
2023-06-27T23:21:28.369Z,17.50
2023-06-27T23:23:58.996Z,18.53
2023-06-27T23:26:30.760Z,19.10
2023-06-27T23:29:04.811Z,19.77
2023-06-27T23:31:36.789Z,19.97
2023-06-27T23:34:08.249Z,21.17
2023-06-27T23:36:41.551Z,21.40
2023-06-27T23:39:18.390Z,22.57
2023-06-27T23:41:47.368Z,22.60
2023-06-27T23:44:15.483Z,23.57
2023-06-27T23:46:43.654Z,24.70
2023-06-27T23:49:13.123Z,25.57
2023-06-27T23:51:41.170Z,26.10
2023-06-27T23:54:09.387Z,27.13
2023-06-27T23:56:37.498Z,27.50
2023-06-27T23:59:13.596Z,28.20
